Time;durP1;ratioP1;P1;durP2;ratioP2;P2;SDS_P1;SDS_P2;PMS_P1;PMS_P2;Temp;Humidity;BMP_temperature;BMP_pressure;BME280_temperature;BME280_humidity;BME280_pressure;Samples;Min_cycle;Max_cycle;Signal;HPM_P1;HPM_P2
2022/10/10 00:01:32;;;;;;;5.53;5.03;;;15.50;91.70;;;;;;5078738;28;20465;-43
2022/10/10 00:03:58;;;;;;;6.00;5.50;;;15.50;91.70;;;;;;5078643;28;20405;-45
2022/10/10 00:06:24;;;;;;;5.17;4.63;;;15.50;91.80;;;;;;5078875;28;20729;-46
2022/10/10 00:08:50;;;;;;;6.00;5.50;;;15.50;91.80;;;;;;5079089;28;20746;-42
2022/10/10 00:11:17;;;;;;;6.37;5.47;;;15.50;91.80;;;;;;5078905;28;20509;-43
2022/10/10 00:13:43;;;;;;;6.57;5.93;;;15.50;91.90;;;;;;5078928;28;20223;-46
2022/10/10 00:16:09;;;;;;;6.10;5.60;;;15.40;91.90;;;;;;5079735;28;20475;-43
2022/10/10 00:18:36;;;;;;;6.63;5.80;;;15.50;92.00;;;;;;5078428;28;20416;-44
2022/10/10 00:21:01;;;;;;;8.03;5.30;;;15.50;92.10;;;;;;5078169;28;20433;-46
2022/10/10 00:23:27;;;;;;;5.87;5.33;;;15.50;92.10;;;;;;5078659;28;20911;-45
2022/10/10 00:25:53;;;;;;;5.87;5.27;;;15.40;92.00;;;;;;5078305;28;20494;-44
2022/10/10 00:28:19;;;;;;;5.77;5.30;;;15.40;92.00;;;;;;5078194;28;20256;-45
2022/10/10 00:30:45;;;;;;;6.47;5.97;;;15.40;92.00;;;;;;5077590;28;20182;-46
2022/10/10 00:33:11;;;;;;;5.60;5.10;;;15.30;92.00;;;;;;5079122;28;20414;-44
2022/10/10 00:35:36;;;;;;;5.90;5.43;;;15.30;92.00;;;;;;5078731;28;20225;-48
2022/10/10 00:38:02;;;;;;;6.17;5.00;;;15.20;92.00;;;;;;5077231;28;20685;-44
2022/10/10 00:40:28;;;;;;;5.97;5.37;;;15.30;92.10;;;;;;5077530;28;20539;-46
2022/10/10 00:42:54;;;;;;;5.80;5.30;;;15.20;92.10;;;;;;5077821;28;20410;-45
2022/10/10 00:45:21;;;;;;;7.00;6.03;;;15.20;92.10;;;;;;5076802;28;20981;-47
2022/10/10 00:47:48;;;;;;;6.00;5.37;;;15.20;92.20;;;;;;5076860;28;20180;-44
2022/10/10 00:50:14;;;;;;;6.77;5.43;;;15.20;92.20;;;;;;5077514;28;20541;-47
2022/10/10 00:52:40;;;;;;;5.90;5.40;;;15.10;92.20;;;;;;5078563;28;20418;-46
2022/10/10 00:55:06;;;;;;;7.83;5.57;;;15.10;92.30;;;;;;5077329;28;20467;-47
2022/10/10 00:57:31;;;;;;;6.17;5.37;;;15.10;92.30;;;;;;5078209;28;20236;-45
2022/10/10 00:59:58;;;;;;;5.20;4.70;;;15.00;92.30;;;;;;5078081;28;20487;-47
2022/10/10 01:02:24;;;;;;;5.37;4.80;;;15.00;92.30;;;;;;5077531;28;20170;-43
2022/10/10 01:04:50;;;;;;;5.70;5.20;;;15.00;92.30;;;;;;5076235;28;20523;-43
2022/10/10 01:07:23;;;;;;;5.50;5.00;;;15.00;92.40;;;;;;5077476;28;20733;-46
2022/10/10 01:09:51;;;;;;;5.30;4.80;;;15.00;92.40;;;;;;5060422;28;20289;-45
2022/10/10 01:12:50;;;;;;;5.80;5.30;;;15.00;92.40;;;;;;5075891;28;20410;-45
2022/10/10 01:15:25;;;;;;;6.13;5.50;;;15.00;92.40;;;;;;5077119;28;20470;-46
2022/10/10 01:18:11;;;;;;;6.10;5.50;;;14.90;92.40;;;;;;5077500;28;20457;-44
2022/10/10 01:20:43;;;;;;;5.73;5.23;;;14.90;92.50;;;;;;5076995;28;20570;-45
2022/10/10 01:23:37;;;;;;;6.43;5.80;;;14.90;92.50;;;;;;5075612;28;20495;-46
2022/10/10 01:26:08;;;;;;;6.57;5.87;;;14.90;92.50;;;;;;5076126;28;20463;-43
2022/10/10 01:28:37;;;;;;;5.90;5.30;;;14.90;92.60;;;;;;5075390;28;20499;-44
2022/10/10 01:31:05;;;;;;;6.30;5.70;;;14.90;92.60;;;;;;5075937;28;20418;-45
2022/10/10 01:33:43;;;;;;;6.50;5.40;;;14.90;92.70;;;;;;5074954;28;20446;-43
2022/10/10 01:36:14;;;;;;;5.40;4.87;;;14.90;92.70;;;;;;5074950;28;20491;-46
2022/10/10 01:39:01;;;;;;;7.20;5.57;;;14.90;92.70;;;;;;5075632;28;20710;-48
2022/10/10 01:41:33;;;;;;;5.80;4.83;;;14.80;92.70;;;;;;5076274;28;20419;-44
2022/10/10 01:43:58;;;;;;;5.57;5.07;;;14.80;92.70;;;;;;5075081;28;20439;-45
2022/10/10 01:46:24;;;;;;;6.93;6.10;;;14.80;92.70;;;;;;5077053;28;20703;-43
2022/10/10 01:48:53;;;;;;;5.77;5.30;;;14.80;92.80;;;;;;5077243;28;20218;-43
2022/10/10 01:51:57;;;;;;;5.50;5.10;;;14.80;92.80;;;;;;5077318;28;20484;-43
2022/10/10 01:54:44;;;;;;;6.00;5.50;;;14.80;92.90;;;;;;5074443;28;20562;-49
2022/10/10 01:57:42;;;;;;;6.07;5.57;;;14.80;92.90;;;;;;5077152;28;20475;-44
2022/10/10 02:00:12;;;;;;;6.27;5.77;;;14.80;92.90;;;;;;5063628;28;20446;-44
2022/10/10 02:02:52;;;;;;;6.33;5.10;;;14.80;93.00;;;;;;5076081;28;20521;-57
2022/10/10 02:05:32;;;;;;;6.80;6.10;;;14.80;93.00;;;;;;5076277;28;20409;-44
2022/10/10 02:08:09;;;;;;;7.47;5.87;;;14.70;93.00;;;;;;5075475;28;20434;-43
2022/10/10 02:10:39;;;;;;;6.20;5.03;;;14.70;93.00;;;;;;5075663;28;20543;-43
2022/10/10 02:13:06;;;;;;;6.33;5.13;;;14.70;93.00;;;;;;5075605;28;20440;-45
2022/10/10 02:15:46;;;;;;;4.93;4.40;;;14.70;93.10;;;;;;5075561;28;20516;-46
2022/10/10 02:18:14;;;;;;;8.33;6.07;;;14.70;93.10;;;;;;5074061;28;20432;-45
2022/10/10 02:20:41;;;;;;;6.20;5.60;;;14.70;93.20;;;;;;5073371;28;20902;-45
2022/10/10 02:23:08;;;;;;;5.60;5.10;;;14.70;93.20;;;;;;5074907;28;20419;-47
2022/10/10 02:25:37;;;;;;;5.47;4.97;;;14.60;93.20;;;;;;5075012;28;20419;-46
2022/10/10 02:28:31;;;;;;;7.70;5.50;;;14.60;93.30;;;;;;5075662;28;20720;-43
2022/10/10 02:31:00;;;;;;;5.07;4.57;;;14.60;93.30;;;;;;5076419;28;20421;-43
2022/10/10 02:33:50;;;;;;;5.60;5.10;;;14.60;93.30;;;;;;5075585;28;20457;-46
2022/10/10 02:36:16;;;;;;;5.97;5.40;;;14.60;93.40;;;;;;5075569;28;20437;-45
2022/10/10 02:38:43;;;;;;;5.83;5.33;;;14.60;93.50;;;;;;5075859;28;20441;-45
2022/10/10 02:41:10;;;;;;;6.23;5.73;;;14.50;93.40;;;;;;5074052;28;20440;-43
2022/10/10 02:43:36;;;;;;;6.57;5.97;;;14.50;93.50;;;;;;5074423;28;20468;-45
2022/10/10 02:46:05;;;;;;;6.07;5.57;;;14.50;93.50;;;;;;5074856;28;20435;-43
2022/10/10 02:48:30;;;;;;;6.37;5.73;;;14.50;93.50;;;;;;5075405;28;20499;-44
2022/10/10 02:50:56;;;;;;;4.97;4.57;;;14.50;93.60;;;;;;5074306;28;20419;-44
2022/10/10 02:53:22;;;;;;;5.33;4.90;;;14.40;93.60;;;;;;5074152;28;20191;-43
2022/10/10 02:55:48;;;;;;;5.73;5.17;;;14.40;93.60;;;;;;5073644;28;20210;-46
2022/10/10 02:58:14;;;;;;;6.70;6.10;;;14.40;93.70;;;;;;5074358;28;20239;-42
2022/10/10 03:00:39;;;;;;;6.43;5.83;;;14.40;93.80;;;;;;5075572;28;20249;-43
2022/10/10 03:03:05;;;;;;;5.33;4.93;;;14.40;93.80;;;;;;5074511;28;20662;-42
2022/10/10 03:05:31;;;;;;;5.27;4.87;;;14.40;93.80;;;;;;5074657;28;20424;-45
2022/10/10 03:07:56;;;;;;;5.80;5.30;;;14.40;93.80;;;;;;5079018;28;20273;-44
2022/10/10 03:10:22;;;;;;;6.50;6.00;;;14.40;93.80;;;;;;5078632;28;20179;-44
2022/10/10 03:12:48;;;;;;;6.10;5.43;;;14.30;93.80;;;;;;5079737;28;20183;-45
2022/10/10 03:15:13;;;;;;;6.50;5.90;;;14.30;93.90;;;;;;5079161;28;20207;-43
2022/10/10 03:17:39;;;;;;;7.03;5.80;;;14.30;93.90;;;;;;5078038;28;20210;-42
2022/10/10 03:20:06;;;;;;;5.33;4.83;;;14.30;94.00;;;;;;5079051;28;20516;-47
2022/10/10 03:22:31;;;;;;;5.93;5.40;;;14.30;94.00;;;;;;5078982;28;20188;-47
2022/10/10 03:24:57;;;;;;;5.33;4.83;;;14.30;94.00;;;;;;5078128;28;20412;-45
2022/10/10 03:27:23;;;;;;;6.30;5.70;;;14.30;94.10;;;;;;5076835;28;20250;-43
2022/10/10 03:29:48;;;;;;;5.67;5.17;;;14.30;94.10;;;;;;5077419;28;20210;-43
2022/10/10 03:32:14;;;;;;;5.70;5.00;;;14.30;94.10;;;;;;5077824;28;20448;-45
2022/10/10 03:34:40;;;;;;;5.67;5.17;;;14.30;94.10;;;;;;5077412;28;20202;-44
2022/10/10 03:37:05;;;;;;;5.67;5.17;;;14.30;94.10;;;;;;5076581;28;20266;-47
2022/10/10 03:39:31;;;;;;;6.20;5.53;;;14.30;94.20;;;;;;5076889;28;20172;-44
2022/10/10 03:41:57;;;;;;;5.43;4.93;;;14.30;94.20;;;;;;5073653;28;20180;-45
2022/10/10 03:44:23;;;;;;;8.73;6.10;;;14.30;94.20;;;;;;5076138;28;20247;-44
2022/10/10 03:46:49;;;;;;;7.03;5.20;;;14.30;94.30;;;;;;5077058;28;20258;-44
2022/10/10 03:49:14;;;;;;;6.43;5.83;;;14.30;94.30;;;;;;5076042;28;20832;-45
2022/10/10 03:51:40;;;;;;;7.00;5.77;;;14.30;94.30;;;;;;5074253;28;20406;-45
2022/10/10 03:54:06;;;;;;;6.13;5.43;;;14.30;94.40;;;;;;5073448;28;20390;-44
2022/10/10 03:56:31;;;;;;;6.40;5.53;;;14.30;94.40;;;;;;5074326;28;20259;-44
2022/10/10 03:58:59;;;;;;;5.50;4.63;;;14.30;94.40;;;;;;5057915;28;20177;-47
2022/10/10 04:01:26;;;;;;;7.07;5.60;;;14.30;94.50;;;;;;5075250;28;20551;-43
2022/10/10 04:03:52;;;;;;;5.70;5.07;;;14.30;94.50;;;;;;5076160;28;20416;-45
2022/10/10 04:06:18;;;;;;;6.20;5.70;;;14.30;94.50;;;;;;5076456;28;20430;-43
2022/10/10 04:08:43;;;;;;;5.13;4.73;;;14.30;94.60;;;;;;5078033;28;20186;-44
2022/10/10 04:11:09;;;;;;;6.37;4.90;;;14.30;94.60;;;;;;5075743;28;20430;-44
2022/10/10 04:13:35;;;;;;;8.17;5.10;;;14.30;94.60;;;;;;5075873;28;20177;-44
2022/10/10 04:16:01;;;;;;;5.30;4.80;;;14.30;94.70;;;;;;5075833;28;20187;-44
2022/10/10 04:18:26;;;;;;;7.10;5.07;;;14.30;94.70;;;;;;5076235;28;20252;-47
2022/10/10 04:20:52;;;;;;;5.80;5.30;;;14.30;94.70;;;;;;5076285;28;20543;-43
2022/10/10 04:23:18;;;;;;;4.83;4.43;;;14.20;94.70;;;;;;5076070;28;20253;-44
2022/10/10 04:25:44;;;;;;;6.23;5.60;;;14.20;94.70;;;;;;5074319;28;20272;-43
2022/10/10 04:28:11;;;;;;;5.00;4.50;;;14.20;94.70;;;;;;5073792;28;20527;-45
2022/10/10 04:30:37;;;;;;;6.90;5.07;;;14.20;94.70;;;;;;5072828;28;20425;-43
2022/10/10 04:33:03;;;;;;;6.60;4.93;;;14.20;94.70;;;;;;5073460;28;20701;-42
2022/10/10 04:35:29;;;;;;;6.43;5.77;;;14.20;94.70;;;;;;5071961;28;20229;-43
2022/10/10 04:37:54;;;;;;;5.60;5.10;;;14.10;94.70;;;;;;5071107;28;20256;-43
2022/10/10 04:40:20;;;;;;;6.60;5.67;;;14.10;94.80;;;;;;5071874;28;20180;-42
2022/10/10 04:42:46;;;;;;;6.47;5.77;;;14.10;94.80;;;;;;5073391;28;20168;-43
2022/10/10 04:45:11;;;;;;;5.77;4.53;;;14.10;94.80;;;;;;5071482;28;20578;-44
2022/10/10 04:47:37;;;;;;;6.03;4.73;;;14.10;94.90;;;;;;5068085;28;20168;-43
2022/10/10 04:50:03;;;;;;;6.33;5.73;;;14.10;94.90;;;;;;5070088;28;20184;-42
2022/10/10 04:52:29;;;;;;;6.40;5.10;;;14.10;94.90;;;;;;5070982;28;20189;-42
2022/10/10 04:54:54;;;;;;;5.80;5.23;;;14.10;94.90;;;;;;5072580;28;20474;-43
2022/10/10 04:57:20;;;;;;;6.20;5.60;;;14.10;95.00;;;;;;5073178;28;20488;-42
2022/10/10 04:59:46;;;;;;;5.37;4.97;;;14.10;95.10;;;;;;5069539;28;20471;-45
2022/10/10 05:02:12;;;;;;;5.83;5.27;;;14.00;95.10;;;;;;5071018;28;20257;-44
2022/10/10 05:04:37;;;;;;;5.73;5.23;;;14.00;95.10;;;;;;5071168;28;20716;-43
2022/10/10 05:07:03;;;;;;;7.13;6.43;;;14.00;95.20;;;;;;5072928;28;20189;-43
2022/10/10 05:09:29;;;;;;;6.33;5.50;;;14.00;95.20;;;;;;5070710;28;20213;-45
2022/10/10 05:11:55;;;;;;;5.83;5.33;;;14.00;95.20;;;;;;5076027;28;20257;-42
2022/10/10 05:14:21;;;;;;;5.43;4.93;;;13.90;95.30;;;;;;5092599;28;20534;-43
2022/10/10 05:16:46;;;;;;;6.17;5.57;;;13.80;95.40;;;;;;5093382;28;20232;-44
2022/10/10 05:19:12;;;;;;;5.33;4.83;;;13.80;95.60;;;;;;5092668;28;20446;-44
2022/10/10 05:21:38;;;;;;;6.13;5.53;;;13.80;95.70;;;;;;5093147;28;20179;-45
2022/10/10 05:24:03;;;;;;;5.50;5.00;;;13.70;95.90;;;;;;5087670;28;20514;-46
2022/10/10 05:26:29;;;;;;;6.30;5.10;;;13.70;96.10;;;;;;5089954;28;20631;-43
2022/10/10 05:28:55;;;;;;;6.60;6.00;;;13.60;96.20;;;;;;5091009;28;20175;-44
2022/10/10 05:31:20;;;;;;;5.73;5.20;;;13.60;96.20;;;;;;5090526;28;20527;-43
2022/10/10 05:33:46;;;;;;;5.60;5.07;;;13.60;96.30;;;;;;5089027;28;20444;-43
2022/10/10 05:36:12;;;;;;;6.30;4.83;;;13.60;96.30;;;;;;5088147;28;20229;-44
2022/10/10 05:38:39;;;;;;;5.87;5.37;;;13.60;96.40;;;;;;5089264;28;20183;-44
2022/10/10 05:41:06;;;;;;;7.13;6.43;;;13.60;96.50;;;;;;5090734;28;20479;-45
2022/10/10 05:43:34;;;;;;;6.23;5.73;;;13.60;96.60;;;;;;5091363;28;20446;-45
2022/10/10 05:46:00;;;;;;;6.70;6.10;;;13.60;96.60;;;;;;5091304;28;20449;-44
2022/10/10 05:48:26;;;;;;;6.33;5.73;;;13.60;97.00;;;;;;5090966;28;20504;-45
2022/10/10 05:50:54;;;;;;;6.60;5.97;;;13.60;96.80;;;;;;5087506;28;20540;-43
2022/10/10 05:53:21;;;;;;;6.77;5.87;;;13.60;96.80;;;;;;5089186;28;20169;-47
2022/10/10 05:55:47;;;;;;;12.53;7.30;;;13.60;96.80;;;;;;5089210;28;20468;-44
2022/10/10 05:58:13;;;;;;;7.90;6.50;;;13.70;97.20;;;;;;5090182;28;20435;-45
2022/10/10 06:00:43;;;;;;;14.83;7.70;;;13.70;97.00;;;;;;5086675;28;20189;-43
2022/10/10 06:03:12;;;;;;;10.77;6.43;;;13.80;97.10;;;;;;5086880;28;20482;-43
2022/10/10 06:05:39;;;;;;;14.60;6.43;;;13.80;96.90;;;;;;5091064;28;20503;-46
2022/10/10 06:08:06;;;;;;;9.63;6.60;;;13.90;96.90;;;;;;5089432;28;20442;-46
2022/10/10 06:10:36;;;;;;;8.47;6.97;;;14.00;96.90;;;;;;5088982;28;20419;-46
2022/10/10 06:13:02;;;;;;;7.20;6.07;;;14.10;96.80;;;;;;5087951;28;20452;-43
2022/10/10 06:15:28;;;;;;;8.73;6.63;;;14.20;96.70;;;;;;5092469;28;20476;-44
2022/10/10 06:17:53;;;;;;;6.37;5.50;;;14.30;96.70;;;;;;5092820;28;20417;-43
2022/10/10 06:20:19;;;;;;;6.80;6.10;;;14.40;96.50;;;;;;5091070;28;20186;-44
2022/10/10 06:22:45;;;;;;;8.23;5.27;;;14.50;96.30;;;;;;5071659;28;20281;-44
2022/10/10 06:25:11;;;;;;;6.77;6.03;;;14.60;96.20;;;;;;5080808;28;20281;-44
2022/10/10 06:27:36;;;;;;;6.10;5.40;;;14.70;96.20;;;;;;5093609;28;21014;-44
2022/10/10 06:30:03;;;;;;;6.63;5.70;;;14.70;96.20;;;;;;5093789;28;20189;-47
2022/10/10 06:32:28;;;;;;;7.00;6.20;;;14.70;96.10;;;;;;5094156;28;20469;-44
2022/10/10 06:34:54;;;;;;;7.13;6.27;;;14.80;96.10;;;;;;5093982;28;20481;-43
2022/10/10 06:37:20;;;;;;;7.07;6.47;;;14.90;96.10;;;;;;5094260;28;20195;-44
2022/10/10 06:39:46;;;;;;;12.83;6.17;;;14.90;96.00;;;;;;5093221;28;20880;-46
2022/10/10 06:42:11;;;;;;;10.20;5.77;;;15.10;96.00;;;;;;5091796;28;20659;-44
2022/10/10 06:44:37;;;;;;;9.97;6.07;;;15.20;95.90;;;;;;5092122;28;20190;-43
2022/10/10 06:47:03;;;;;;;6.57;5.57;;;15.20;95.70;;;;;;5093948;28;20557;-46
2022/10/10 06:49:29;;;;;;;6.20;5.67;;;15.30;95.70;;;;;;5093925;28;20637;-43
2022/10/10 06:51:54;;;;;;;7.20;5.17;;;15.30;95.60;;;;;;5092416;28;20829;-44
2022/10/10 06:54:20;;;;;;;5.93;5.17;;;15.40;95.50;;;;;;5092958;28;20194;-45
2022/10/10 06:56:46;;;;;;;8.70;6.40;;;15.50;95.50;;;;;;5091490;28;20314;-43
2022/10/10 06:59:11;;;;;;;10.30;5.57;;;15.50;95.80;;;;;;5093445;28;20175;-46
2022/10/10 07:01:37;;;;;;;5.80;5.00;;;15.60;95.40;;;;;;5092786;28;20190;-45
2022/10/10 07:04:04;;;;;;;6.90;6.07;;;15.80;95.30;;;;;;5093832;28;20501;-44
2022/10/10 07:06:30;;;;;;;6.50;5.40;;;15.90;95.20;;;;;;5092035;28;20511;-46
2022/10/10 07:08:57;;;;;;;7.20;5.77;;;16.10;94.90;;;;;;5092528;28;20423;-44
2022/10/10 07:11:23;;;;;;;6.23;5.60;;;16.20;94.70;;;;;;5091310;28;20432;-43
2022/10/10 07:13:51;;;;;;;6.10;5.60;;;16.30;94.50;;;;;;5091471;28;20440;-44
2022/10/10 07:16:17;;;;;;;6.10;5.50;;;16.30;94.30;;;;;;5091354;28;20432;-44
2022/10/10 07:18:43;;;;;;;6.57;5.40;;;16.40;94.30;;;;;;5092821;28;20494;-44
2022/10/10 07:21:09;;;;;;;7.70;5.80;;;16.40;94.20;;;;;;5092535;28;20438;-47
2022/10/10 07:23:35;;;;;;;5.63;5.10;;;16.40;94.20;;;;;;5091491;28;20418;-46
2022/10/10 07:26:12;;;;;;;5.40;5.00;;;16.50;94.20;;;;;;5092556;28;20445;-45
2022/10/10 07:28:39;;;;;;;6.90;5.57;;;16.50;94.10;;;;;;5094707;28;20426;-46
2022/10/10 07:31:07;;;;;;;6.10;5.43;;;16.60;94.00;;;;;;5093605;28;20524;-45
2022/10/10 07:33:39;;;;;;;7.33;4.83;;;16.60;93.90;;;;;;5092957;28;20858;-45
2022/10/10 07:36:06;;;;;;;5.13;4.63;;;16.70;93.90;;;;;;5092193;28;20441;-44
2022/10/10 07:38:32;;;;;;;5.60;5.00;;;16.70;93.80;;;;;;5090940;28;20653;-44
2022/10/10 07:40:58;;;;;;;5.50;5.00;;;16.80;93.80;;;;;;5087997;28;20822;-47
2022/10/10 07:43:24;;;;;;;6.17;4.67;;;16.90;93.70;;;;;;5087576;28;20464;-46
2022/10/10 07:45:49;;;;;;;7.27;5.07;;;17.00;93.60;;;;;;5088969;28;20187;-47
2022/10/10 07:48:15;;;;;;;7.37;5.30;;;17.10;93.50;;;;;;5089157;28;20180;-45
2022/10/10 07:50:41;;;;;;;6.50;5.00;;;17.30;93.40;;;;;;5087791;28;20550;-46
2022/10/10 07:53:09;;;;;;;4.53;3.97;;;17.30;93.20;;;;;;5092061;28;20544;-46
2022/10/10 07:55:44;;;;;;;4.60;2.67;;;17.40;93.20;;;;;;5094471;28;20528;-46
2022/10/10 07:58:10;;;;;;;5.47;2.93;;;17.70;95.90;;;;;;5094829;28;20797;-48
2022/10/10 08:00:39;;;;;;;3.60;2.63;;;18.20;95.80;;;;;;5095840;28;20704;-46
2022/10/10 08:03:06;;;;;;;3.57;2.50;;;18.50;95.00;;;;;;5094670;28;20433;-45
2022/10/10 08:05:32;;;;;;;4.53;2.77;;;18.90;94.30;;;;;;5097134;28;20433;-45
2022/10/10 08:07:58;;;;;;;3.03;2.60;;;19.10;93.60;;;;;;5096400;28;20411;-44
2022/10/10 08:10:24;;;;;;;7.47;2.63;;;19.40;93.10;;;;;;5096399;28;20175;-48
2022/10/10 08:12:50;;;;;;;4.03;3.30;;;19.60;92.60;;;;;;5093947;28;20188;-47
2022/10/10 08:15:15;;;;;;;4.70;2.60;;;19.80;92.10;;;;;;5095375;28;20468;-48
2022/10/10 08:17:41;;;;;;;9.23;2.43;;;19.90;91.60;;;;;;5094480;28;20570;-43
2022/10/10 08:20:07;;;;;;;8.03;3.60;;;20.10;91.30;;;;;;5095290;28;20171;-43
2022/10/10 08:22:34;;;;;;;5.27;3.10;;;20.20;90.80;;;;;;5095465;28;20210;-46
2022/10/10 08:24:59;;;;;;;6.60;3.10;;;20.40;90.50;;;;;;5097050;28;20776;-49
2022/10/10 08:27:25;;;;;;;5.37;3.47;;;20.60;90.00;;;;;;5097390;28;20489;-45
2022/10/10 08:29:50;;;;;;;3.53;2.87;;;20.80;89.30;;;;;;5095608;28;20187;-48
2022/10/10 08:32:16;;;;;;;3.50;2.57;;;21.00;88.30;;;;;;5097233;28;20515;-46
2022/10/10 08:34:42;;;;;;;2.37;2.00;;;21.10;87.50;;;;;;5095747;28;20195;-45
2022/10/10 08:37:08;;;;;;;4.13;2.90;;;21.30;86.80;;;;;;5096378;28;20180;-43
2022/10/10 08:39:33;;;;;;;2.67;2.47;;;21.40;85.90;;;;;;5096570;28;20413;-44
2022/10/10 08:42:01;;;;;;;6.10;3.10;;;21.60;85.40;;;;;;5094037;28;20191;-47
2022/10/10 08:44:31;;;;;;;3.50;3.20;;;21.80;84.50;;;;;;5095469;28;20195;-46
2022/10/10 08:47:19;;;;;;;3.10;2.47;;;22.00;83.70;;;;;;5094627;28;20707;-46
2022/10/10 08:50:03;;;;;;;4.03;3.10;;;22.30;82.80;;;;;;5093236;28;20449;-45
2022/10/10 08:52:31;;;;;;;3.07;2.77;;;22.70;81.70;;;;;;5091610;28;20524;-44
2022/10/10 08:55:00;;;;;;;3.23;2.93;;;23.10;79.90;;;;;;5094695;28;20892;-47
2022/10/10 08:57:29;;;;;;;5.43;3.13;;;23.50;78.30;;;;;;5093206;28;20481;-44
2022/10/10 09:00:02;;;;;;;3.57;2.80;;;23.90;76.60;;;;;;5095758;28;20421;-45
2022/10/10 09:02:33;;;;;;;3.50;3.00;;;24.20;75.10;;;;;;5094837;28;20406;-46
2022/10/10 09:04:59;;;;;;;3.43;2.77;;;24.40;73.70;;;;;;5095455;28;20849;-46
2022/10/10 09:08:21;;;;;;;3.90;3.50;;;24.40;72.80;;;;;;5095955;28;20431;-46
2022/10/10 09:11:01;;;;;;;3.13;2.83;;;24.40;72.40;;;;;;5036832;28;20472;-48
2022/10/10 09:13:30;;;;;;;3.30;3.00;;;24.30;71.90;;;;;;5037844;28;20443;-45
2022/10/10 09:16:05;;;;;;;4.20;3.50;;;24.30;71.80;;;;;;5077581;28;20482;-46
2022/10/10 09:18:58;;;;;;;3.70;3.40;;;24.20;71.50;;;;;;5075118;28;20850;-46
2022/10/10 09:21:34;;;;;;;5.57;3.70;;;24.30;71.50;;;;;;5093357;28;20545;-46
2022/10/10 09:24:17;;;;;;;4.07;3.43;;;24.50;70.80;;;;;;5093782;28;20415;-47
2022/10/10 09:26:50;;;;;;;3.83;3.33;;;24.80;70.00;;;;;;5096842;28;20430;-47
2022/10/10 09:29:37;;;;;;;4.00;3.60;;;25.50;68.40;;;;;;5095316;28;20528;-47
2022/10/10 09:32:07;;;;;;;3.63;3.03;;;26.10;65.40;;;;;;5095674;28;20466;-45
2022/10/10 09:34:46;;;;;;;3.53;3.13;;;26.20;63.70;;;;;;5093890;28;20724;-45
2022/10/10 09:37:28;;;;;;;3.60;3.03;;;26.20;62.70;;;;;;5093715;28;20419;-46
2022/10/10 09:40:11;;;;;;;4.40;3.17;;;26.20;62.50;;;;;;5096060;28;20447;-48
2022/10/10 09:42:38;;;;;;;3.27;2.97;;;26.60;62.10;;;;;;5095896;28;20414;-44
2022/10/10 09:45:35;;;;;;;4.10;3.00;;;26.80;60.60;;;;;;5095417;28;20422;-46
2022/10/10 09:48:01;;;;;;;4.47;2.90;;;27.00;59.70;;;;;;5087864;28;20795;-43
2022/10/10 09:50:27;;;;;;;4.40;2.83;;;26.90;59.20;;;;;;5093323;28;20560;-42
2022/10/10 09:52:53;;;;;;;3.30;3.00;;;26.80;59.20;;;;;;5093584;28;20176;-44
2022/10/10 09:55:33;;;;;;;4.93;2.93;;;26.80;59.00;;;;;;5090071;28;20748;-44
2022/10/10 09:58:30;;;;;;;4.70;2.67;;;26.70;59.00;;;;;;5091482;28;20271;-45
2022/10/10 10:01:16;;;;;;;4.60;3.17;;;26.70;58.80;;;;;;5090842;28;20411;-43
2022/10/10 10:03:43;;;;;;;4.07;3.10;;;26.80;58.20;;;;;;5090185;28;20816;-44
2022/10/10 10:06:12;;;;;;;4.37;3.10;;;26.80;57.80;;;;;;5091449;28;20896;-43
2022/10/10 10:08:37;;;;;;;7.43;3.03;;;26.90;57.90;;;;;;5092802;28;20774;-43
2022/10/10 10:11:04;;;;;;;7.97;3.00;;;27.00;57.80;;;;;;5095301;28;20434;-46
2022/10/10 10:13:35;;;;;;;3.43;3.13;;;27.10;57.80;;;;;;5077739;28;20283;-46
2022/10/10 10:16:07;;;;;;;5.83;2.97;;;27.00;57.80;;;;;;5077506;28;20510;-45
2022/10/10 10:18:45;;;;;;;2.73;2.20;;;27.00;57.80;;;;;;5094553;28;20446;-47
2022/10/10 10:21:22;;;;;;;3.83;2.50;;;26.90;57.70;;;;;;5093830;28;20533;-45
2022/10/10 10:23:50;;;;;;;5.97;2.83;;;26.90;57.60;;;;;;5093142;28;20854;-45
2022/10/10 10:26:18;;;;;;;4.40;2.37;;;26.60;57.80;;;;;;5093355;28;20426;-45
2022/10/10 10:28:45;;;;;;;5.97;2.60;;;26.20;58.30;;;;;;5095141;28;20411;-45
2022/10/10 10:31:30;;;;;;;8.40;2.77;;;26.00;58.90;;;;;;5094259;28;20816;-44
2022/10/10 10:34:40;;;;;;;4.90;2.90;;;25.50;59.00;;;;;;5092322;28;20437;-46
2022/10/10 10:37:12;;;;;;;4.67;2.90;;;25.10;59.50;;;;;;5079970;28;20500;-46
2022/10/10 10:39:47;;;;;;;4.47;2.43;;;25.00;59.90;;;;;;5093837;28;20422;-43
2022/10/10 10:42:49;;;;;;;4.33;2.70;;;24.80;60.10;;;;;;5089361;28;20422;-44
2022/10/10 10:45:34;;;;;;;8.40;2.93;;;24.70;60.50;;;;;;5090776;28;20755;-44
2022/10/10 10:48:26;;;;;;;5.80;3.30;;;24.70;60.60;;;;;;5092590;28;20535;-45
2022/10/10 10:50:54;;;;;;;7.13;3.00;;;24.90;61.20;;;;;;5091114;28;20452;-44
2022/10/10 10:53:51;;;;;;;4.70;3.07;;;25.70;60.90;;;;;;5092903;28;20412;-38
2022/10/10 10:56:40;;;;;;;4.33;3.10;;;27.50;58.70;;;;;;5091688;28;20906;-41
2022/10/10 10:59:43;;;;;;;5.70;3.00;;;30.50;53.80;;;;;;5089559;28;20828;-43
2022/10/10 11:02:09;;;;;;;3.40;2.80;;;33.50;48.90;;;;;;5092453;28;20408;-41
2022/10/10 11:04:56;;;;;;;4.60;2.80;;;36.00;43.20;;;;;;5090510;28;20473;-42
2022/10/10 11:07:23;;;;;;;5.67;2.97;;;37.60;39.80;;;;;;5092334;28;20184;-40
2022/10/10 11:10:00;;;;;;;4.47;3.00;;;39.40;36.50;;;;;;5089952;28;20744;-40
2022/10/10 11:12:59;;;;;;;5.80;2.70;;;40.30;34.60;;;;;;5086871;28;20691;-44
2022/10/10 11:15:31;;;;;;;8.63;3.07;;;41.30;32.90;;;;;;5089438;28;20725;-44
2022/10/10 11:18:04;;;;;;;5.23;3.30;;;42.20;31.80;;;;;;5087183;28;20521;-46
2022/10/10 11:20:36;;;;;;;5.17;3.37;;;42.60;31.30;;;;;;5089212;28;20790;-44
2022/10/10 11:23:31;;;;;;;5.00;3.17;;;42.80;30.50;;;;;;5087989;28;20425;-41
2022/10/10 11:25:59;;;;;;;3.70;2.80;;;43.00;30.20;;;;;;5085177;28;20401;-44
2022/10/10 11:28:35;;;;;;;3.43;3.00;;;43.20;30.00;;;;;;5087321;28;20417;-43
2022/10/10 11:31:10;;;;;;;7.43;3.13;;;43.60;29.50;;;;;;5088052;28;20870;-43
2022/10/10 11:33:41;;;;;;;4.43;3.30;;;43.70;29.50;;;;;;5086761;28;20513;-42
2022/10/10 11:36:16;;;;;;;6.93;3.73;;;43.90;29.10;;;;;;5088615;28;20465;-43
2022/10/10 11:38:57;;;;;;;4.40;2.60;;;44.00;29.30;;;;;;5087556;28;20438;-41
2022/10/10 11:41:28;;;;;;;5.10;2.83;;;44.30;29.10;;;;;;5087739;28;20556;-44
2022/10/10 11:44:14;;;;;;;4.47;3.17;;;44.50;29.00;;;;;;5087231;28;20549;-42
2022/10/10 11:46:48;;;;;;;4.00;2.93;;;44.50;28.80;;;;;;5090849;28;20435;-42
2022/10/10 11:49:21;;;;;;;3.53;3.23;;;44.80;28.80;;;;;;5089906;28;20444;-43
2022/10/10 11:51:50;;;;;;;4.60;3.20;;;44.70;28.40;;;;;;5089241;28;20477;-43
2022/10/10 11:54:43;;;;;;;4.50;3.00;;;44.90;28.50;;;;;;5092208;28;20461;-42
2022/10/10 11:57:15;;;;;;;5.30;2.67;;;45.00;28.40;;;;;;5050366;28;1237418;-43
2022/10/10 11:59:55;;;;;;;4.63;2.80;;;45.10;28.30;;;;;;5077943;28;20679;-42
2022/10/10 12:02:35;;;;;;;5.20;3.20;;;45.30;28.20;;;;;;5095778;28;20458;-42
2022/10/10 12:05:01;;;;;;;5.23;3.20;;;45.40;27.80;;;;;;5092659;28;20428;-43
2022/10/10 12:07:30;;;;;;;7.40;3.00;;;45.10;28.00;;;;;;5093815;28;20444;-43
2022/10/10 12:10:05;;;;;;;4.67;3.30;;;45.00;28.10;;;;;;5093053;28;20555;-42
2022/10/10 12:12:38;;;;;;;5.27;3.43;;;45.10;27.40;;;;;;5092164;28;21059;-44
2022/10/10 12:15:08;;;;;;;6.77;3.60;;;45.30;27.40;;;;;;5091238;28;20474;-42
2022/10/10 12:17:41;;;;;;;6.10;3.30;;;45.50;27.60;;;;;;5092825;28;20531;-45
2022/10/10 12:20:30;;;;;;;5.43;3.13;;;45.80;27.20;;;;;;5093497;28;20824;-46
2022/10/10 12:23:12;;;;;;;5.13;3.33;;;46.00;27.30;;;;;;5094180;28;20514;-44
2022/10/10 12:25:41;;;;;;;6.60;3.60;;;46.00;27.10;;;;;;5095039;28;20431;-45
2022/10/10 12:28:13;;;;;;;5.20;3.30;;;46.00;27.30;;;;;;5093864;28;20487;-41
2022/10/10 12:30:53;;;;;;;4.47;3.70;;;46.00;27.30;;;;;;5095414;28;20747;-41
2022/10/10 12:33:27;;;;;;;5.83;3.33;;;46.00;27.40;;;;;;5094776;28;20452;-47
2022/10/10 12:35:53;;;;;;;6.57;3.30;;;46.10;27.30;;;;;;5093389;28;20471;-40
2022/10/10 12:38:26;;;;;;;7.60;3.80;;;46.00;27.20;;;;;;5094339;28;20677;-45
2022/10/10 12:41:12;;;;;;;7.13;3.13;;;45.90;27.00;;;;;;5093601;28;20419;-43
2022/10/10 12:43:49;;;;;;;6.30;3.63;;;46.00;27.20;;;;;;5092285;28;20673;-44
2022/10/10 12:46:30;;;;;;;3.67;3.10;;;46.00;27.00;;;;;;5094198;28;20418;-45
2022/10/10 12:49:01;;;;;;;4.60;3.47;;;46.00;27.10;;;;;;5094936;28;20440;-43
2022/10/10 12:51:28;;;;;;;4.77;3.63;;;46.40;27.40;;;;;;5094934;28;20535;-48
2022/10/10 12:54:00;;;;;;;6.83;3.43;;;46.70;27.00;;;;;;5096035;28;20433;-43
2022/10/10 12:56:39;;;;;;;3.67;3.30;;;46.70;26.90;;;;;;5095816;28;20909;-45
2022/10/10 12:59:21;;;;;;;4.47;3.30;;;46.70;26.60;;;;;;5095925;28;20423;-42
2022/10/10 13:01:57;;;;;;;7.83;3.77;;;46.90;26.30;;;;;;5078935;28;20454;-44
2022/10/10 13:04:24;;;;;;;4.13;3.00;;;47.20;26.20;;;;;;5095368;28;20420;-42